createdAt,value
2022-08-10T00:01:03.719Z,0.00
2022-08-10T00:02:03.286Z,0.00
2022-08-10T00:04:07.228Z,0.00
2022-08-10T00:05:07.247Z,0.00
2022-08-10T00:07:00.734Z,0.00
2022-08-10T00:08:00.210Z,0.00
2022-08-10T00:10:04.238Z,0.00
2022-08-10T00:11:04.283Z,0.00
2022-08-10T00:13:08.765Z,0.00
2022-08-10T00:14:08.302Z,0.00
2022-08-10T00:16:12.326Z,0.00
2022-08-10T00:17:12.342Z,0.00
2022-08-10T00:19:18.134Z,0.00
2022-08-10T00:20:16.378Z,0.00
2022-08-10T00:22:20.413Z,0.00
2022-08-10T00:23:20.424Z,0.00
2022-08-10T00:25:24.924Z,0.00
2022-08-10T00:26:24.463Z,0.00
2022-08-10T00:28:28.494Z,0.00
2022-08-10T00:29:28.500Z,0.00
2022-08-10T00:31:33.005Z,0.00
2022-08-10T00:32:32.723Z,0.00
2022-08-10T00:34:37.047Z,0.00
2022-08-10T00:35:36.585Z,0.00
2022-08-10T00:37:29.529Z,0.00
2022-08-10T00:38:29.548Z,0.00
2022-08-10T00:40:37.027Z,0.00
2022-08-10T00:41:33.585Z,0.00
2022-08-10T00:43:38.080Z,0.00
2022-08-10T00:44:37.622Z,0.00
2022-08-10T00:46:42.615Z,0.00
2022-08-10T00:47:41.661Z,0.00
2022-08-10T00:49:45.682Z,0.00
2022-08-10T00:50:45.695Z,0.00
2022-08-10T00:52:50.708Z,0.00
2022-08-10T00:53:49.739Z,0.00
2022-08-10T00:57:12.393Z,0.00
2022-08-10T00:57:16.690Z,0.00
2022-08-10T00:58:58.267Z,0.00
2022-08-10T01:00:00.102Z,0.00
2022-08-10T01:02:09.402Z,0.00
2022-08-10T01:03:01.927Z,0.00
2022-08-10T01:05:06.342Z,0.00
2022-08-10T01:06:05.877Z,0.00
2022-08-10T01:08:10.004Z,0.00
2022-08-10T01:09:09.918Z,0.00
2022-08-10T01:12:37.283Z,0.00
2022-08-10T01:12:38.821Z,0.00
2022-08-10T01:14:17.994Z,0.00
2022-08-10T01:15:17.999Z,0.00
2022-08-10T01:17:11.485Z,0.00
2022-08-10T01:18:10.963Z,0.00
2022-08-10T01:20:30.492Z,0.00
2022-08-10T01:21:15.007Z,0.00
2022-08-10T01:23:19.504Z,0.00
2022-08-10T01:24:20.030Z,0.00
2022-08-10T01:26:31.477Z,0.00
2022-08-10T01:27:27.204Z,0.00
2022-08-10T01:29:27.609Z,0.00
2022-08-10T01:30:27.113Z,0.00
2022-08-10T01:32:31.619Z,0.00
2022-08-10T01:33:31.810Z,0.00
2022-08-10T01:35:35.256Z,0.00
2022-08-10T01:36:35.189Z,0.00
2022-08-10T01:38:39.686Z,0.00
2022-08-10T01:39:39.314Z,0.00
2022-08-10T01:41:46.377Z,0.00
2022-08-10T01:42:43.273Z,0.00
2022-08-10T01:44:47.761Z,0.00
2022-08-10T01:45:47.318Z,0.00
2022-08-10T01:47:40.271Z,0.00
2022-08-10T01:48:40.289Z,0.00
2022-08-10T01:50:53.341Z,0.00
2022-08-10T01:51:44.327Z,0.00
2022-08-10T01:53:48.341Z,0.00
2022-08-10T01:54:48.357Z,0.00
2022-08-10T01:56:41.844Z,0.00
2022-08-10T01:57:41.332Z,0.00
2022-08-10T02:00:01.913Z,0.00
2022-08-10T02:00:45.373Z,0.00
2022-08-10T02:02:49.865Z,0.00
2022-08-10T02:04:01.295Z,0.00
2022-08-10T02:05:53.900Z,0.00
2022-08-10T02:06:53.436Z,0.00
2022-08-10T02:09:05.908Z,0.00
2022-08-10T02:09:57.482Z,0.00
2022-08-10T02:11:55.885Z,0.00
2022-08-10T02:12:50.643Z,0.00
2022-08-10T02:14:54.667Z,0.00
2022-08-10T02:16:02.159Z,0.00
2022-08-10T02:18:01.865Z,0.00
2022-08-10T02:18:58.730Z,0.00
2022-08-10T02:20:51.865Z,0.00
2022-08-10T02:22:35.353Z,0.00
2022-08-10T02:23:59.686Z,0.00
2022-08-10T02:24:55.924Z,0.00
2022-08-10T02:26:48.863Z,0.00
2022-08-10T02:27:48.878Z,0.00
2022-08-10T02:29:53.387Z,0.00
2022-08-10T02:30:52.923Z,0.00
2022-08-10T02:32:56.948Z,0.00
2022-08-10T02:33:59.347Z,0.00
2022-08-10T02:36:01.465Z,0.00
2022-08-10T02:37:01.008Z,0.00
2022-08-10T02:39:05.566Z,0.00
2022-08-10T02:40:05.055Z,0.00
2022-08-10T02:45:00.820Z,0.00
2022-08-10T02:45:25.602Z,0.00
2022-08-10T02:45:27.903Z,0.00
2022-08-10T02:46:02.393Z,0.00
2022-08-10T02:47:02.289Z,0.00
2022-08-10T02:48:02.306Z,0.00
2022-08-10T02:49:02.332Z,0.00
2022-08-10T02:50:02.370Z,0.00
2022-08-10T02:51:02.385Z,0.00
2022-08-10T02:52:08.233Z,0.00
2022-08-10T02:53:02.435Z,0.00
2022-08-10T02:54:02.464Z,0.00
2022-08-10T02:55:17.068Z,0.00
2022-08-10T02:56:02.520Z,0.00
2022-08-10T02:57:02.541Z,0.00
2022-08-10T02:58:13.352Z,0.00
2022-08-10T02:59:02.608Z,0.00
2022-08-10T03:00:02.628Z,0.00
2022-08-10T03:01:02.681Z,0.00
2022-08-10T03:02:02.682Z,0.00
2022-08-10T03:03:02.703Z,0.00
2022-08-10T03:04:02.730Z,0.00
2022-08-10T03:05:02.755Z,0.00
2022-08-10T03:06:02.787Z,0.00
2022-08-10T03:07:02.809Z,0.00
2022-08-10T03:08:02.842Z,0.00
2022-08-10T03:09:02.859Z,0.00
2022-08-10T03:10:02.894Z,0.00
2022-08-10T03:11:02.931Z,0.00
2022-08-10T03:12:35.282Z,0.00
2022-08-10T03:13:02.968Z,0.00
2022-08-10T03:14:02.996Z,0.00
2022-08-10T03:15:03.025Z,0.00
2022-08-10T03:16:03.054Z,0.00
2022-08-10T03:17:03.075Z,0.00
2022-08-10T03:18:03.099Z,0.00
2022-08-10T03:19:03.128Z,0.00
2022-08-10T03:20:35.846Z,0.00
2022-08-10T03:21:03.176Z,0.00
2022-08-10T03:22:03.206Z,0.00
2022-08-10T03:23:03.231Z,0.00
2022-08-10T03:24:03.265Z,0.00
2022-08-10T03:25:03.286Z,0.00
2022-08-10T03:26:03.308Z,0.00
2022-08-10T03:27:03.338Z,0.00
2022-08-10T03:28:03.356Z,0.00
2022-08-10T03:29:03.390Z,0.00
2022-08-10T03:30:32.942Z,0.00
2022-08-10T03:31:03.444Z,0.00
2022-08-10T03:32:03.465Z,0.00
2022-08-10T03:33:03.494Z,0.00
2022-08-10T03:34:03.520Z,0.00
2022-08-10T03:35:03.547Z,0.00
2022-08-10T03:36:42.054Z,0.00
2022-08-10T03:37:03.599Z,0.00
2022-08-10T03:38:03.623Z,0.00
2022-08-10T03:39:03.652Z,0.00
2022-08-10T03:40:03.676Z,0.00
2022-08-10T03:41:03.701Z,0.00
2022-08-10T03:42:03.728Z,0.00
2022-08-10T03:43:03.769Z,0.00
2022-08-10T03:44:03.787Z,0.00
2022-08-10T03:45:03.808Z,0.00
2022-08-10T03:46:03.834Z,0.00
2022-08-10T03:47:03.898Z,0.00
2022-08-10T03:48:03.887Z,0.00
2022-08-10T03:49:03.914Z,0.00
2022-08-10T03:50:25.968Z,0.00
2022-08-10T03:51:03.965Z,0.00
2022-08-10T03:52:03.990Z,5.63
2022-08-10T03:53:04.017Z,5.63
2022-08-10T03:54:07.169Z,5.63
2022-08-10T03:55:04.069Z,5.63
2022-08-10T03:56:29.414Z,5.63
2022-08-10T03:57:04.130Z,5.63
2022-08-10T03:58:04.147Z,5.63
2022-08-10T03:59:04.175Z,5.63
2022-08-10T04:00:04.200Z,5.63
2022-08-10T04:01:04.344Z,5.63
2022-08-10T04:02:43.823Z,5.63
2022-08-10T04:03:04.277Z,11.25
2022-08-10T04:04:12.857Z,11.25
2022-08-10T04:05:04.330Z,11.25
2022-08-10T04:06:04.358Z,11.25
2022-08-10T04:07:04.383Z,16.88
2022-08-10T04:08:04.408Z,16.88
2022-08-10T04:09:04.440Z,16.88
2022-08-10T04:10:04.459Z,16.88
2022-08-10T04:11:04.491Z,22.50
2022-08-10T04:12:04.510Z,22.50
2022-08-10T04:13:04.540Z,22.50
2022-08-10T04:14:04.568Z,28.13
2022-08-10T04:15:04.594Z,28.13
2022-08-10T04:16:07.669Z,33.75
2022-08-10T04:17:04.645Z,33.75
2022-08-10T04:18:06.272Z,33.75
2022-08-10T04:19:04.699Z,39.38
2022-08-10T04:20:04.722Z,39.38
2022-08-10T04:21:04.756Z,39.38
2022-08-10T04:22:04.775Z,39.38
2022-08-10T04:23:04.802Z,45.00
2022-08-10T04:24:04.841Z,45.00
2022-08-10T04:25:04.852Z,45.00
2022-08-10T04:26:04.880Z,50.63
2022-08-10T04:27:04.906Z,61.88
2022-08-10T04:28:04.931Z,78.75
2022-08-10T04:29:04.957Z,84.38
2022-08-10T04:30:04.981Z,78.75
2022-08-10T04:31:05.021Z,78.75
2022-08-10T04:32:05.035Z,84.38
2022-08-10T04:33:05.063Z,95.63
2022-08-10T04:34:08.911Z,95.63
2022-08-10T04:35:05.123Z,95.63
2022-08-10T04:36:05.141Z,101.25
2022-08-10T04:37:08.822Z,112.50
2022-08-10T04:38:05.190Z,106.88
2022-08-10T04:39:05.262Z,101.25
2022-08-10T04:40:05.247Z,101.25
2022-08-10T04:41:05.269Z,95.63
2022-08-10T04:42:05.296Z,95.63
2022-08-10T04:43:11.731Z,95.63
2022-08-10T04:44:05.351Z,101.25
2022-08-10T04:45:05.383Z,95.63
2022-08-10T04:46:05.785Z,90.00
2022-08-10T04:47:05.436Z,78.75
2022-08-10T04:48:05.463Z,84.38
2022-08-10T04:49:05.490Z,78.75
2022-08-10T04:50:05.514Z,90.00
2022-08-10T04:51:05.539Z,101.25
2022-08-10T04:52:05.566Z,112.50
2022-08-10T04:53:05.597Z,118.13
2022-08-10T04:54:08.108Z,106.88
2022-08-10T04:55:05.654Z,90.00
2022-08-10T04:56:05.679Z,90.00
2022-08-10T04:57:05.710Z,90.00
2022-08-10T04:58:05.730Z,90.00
2022-08-10T04:59:05.781Z,90.00
2022-08-10T05:00:11.477Z,90.00
2022-08-10T05:01:05.867Z,90.00
2022-08-10T05:02:30.713Z,90.00
2022-08-10T05:03:05.879Z,95.63
2022-08-10T05:04:34.048Z,101.25
2022-08-10T05:05:05.927Z,101.25
2022-08-10T05:06:05.948Z,101.25
2022-08-10T05:07:05.979Z,101.25
2022-08-10T05:08:06.006Z,101.25
2022-08-10T05:09:06.035Z,101.25
2022-08-10T05:10:08.332Z,101.25
2022-08-10T05:11:06.093Z,106.88
2022-08-10T05:12:06.116Z,106.88
2022-08-10T05:13:06.156Z,106.88
2022-08-10T05:14:06.171Z,106.88
2022-08-10T05:15:06.196Z,112.50
2022-08-10T05:16:06.225Z,118.13
2022-08-10T05:17:06.249Z,123.75
2022-08-10T05:18:09.797Z,118.13
2022-08-10T05:19:06.309Z,129.38
2022-08-10T05:20:07.458Z,123.75
2022-08-10T05:21:06.367Z,129.38
2022-08-10T05:22:06.398Z,135.00
2022-08-10T05:23:06.419Z,140.63
2022-08-10T05:24:06.445Z,135.00
2022-08-10T05:25:06.473Z,135.00
2022-08-10T05:26:06.501Z,140.63
2022-08-10T05:27:09.929Z,146.25
2022-08-10T05:28:07.042Z,157.50
2022-08-10T05:29:06.585Z,174.38
2022-08-10T05:30:06.616Z,174.38
2022-08-10T05:31:06.638Z,157.50
2022-08-10T05:32:06.665Z,151.88
2022-08-10T05:33:09.017Z,146.25
2022-08-10T05:34:06.721Z,146.25
2022-08-10T05:35:06.747Z,146.25
2022-08-10T05:36:06.774Z,151.88
2022-08-10T05:37:06.805Z,151.88
2022-08-10T05:38:13.137Z,157.50
2022-08-10T05:39:06.917Z,168.75
2022-08-10T05:40:06.879Z,163.13
2022-08-10T05:41:06.914Z,163.13
2022-08-10T05:42:06.942Z,185.63
2022-08-10T05:43:06.972Z,185.63
2022-08-10T05:44:06.994Z,180.00
2022-08-10T05:45:07.022Z,168.75
2022-08-10T05:46:19.851Z,168.75
2022-08-10T05:47:10.956Z,185.63
2022-08-10T05:48:54.687Z,163.13
2022-08-10T05:49:07.136Z,163.13
2022-08-10T05:50:07.161Z,163.13
2022-08-10T05:51:07.192Z,157.50
2022-08-10T05:52:07.215Z,157.50
2022-08-10T05:53:23.145Z,157.50
2022-08-10T05:54:07.279Z,157.50
2022-08-10T05:55:07.299Z,163.13
2022-08-10T05:56:07.328Z,163.13
2022-08-10T05:57:07.357Z,163.13
2022-08-10T05:58:07.387Z,163.13
2022-08-10T05:59:07.443Z,163.13
2022-08-10T06:00:32.954Z,157.50
2022-08-10T06:01:07.508Z,163.13
2022-08-10T06:02:33.670Z,174.38
2022-08-10T06:03:07.529Z,174.38
2022-08-10T06:04:07.553Z,180.00
2022-08-10T06:05:07.588Z,258.75
2022-08-10T06:06:07.607Z,506.25
2022-08-10T06:07:07.637Z,630.00
2022-08-10T06:08:07.664Z,646.88
2022-08-10T06:09:07.695Z,658.13
2022-08-10T06:10:10.038Z,669.38
2022-08-10T06:12:26.034Z,663.75
2022-08-10T06:12:27.063Z,663.75
2022-08-10T06:13:07.809Z,680.63
2022-08-10T06:14:15.832Z,691.88
2022-08-10T06:15:10.319Z,697.50
2022-08-10T06:16:07.910Z,703.13
2022-08-10T06:17:07.923Z,720.00
2022-08-10T06:18:07.951Z,725.63
2022-08-10T06:19:08.003Z,703.13
2022-08-10T06:20:08.014Z,669.38
2022-08-10T06:21:08.047Z,675.00
2022-08-10T06:22:08.073Z,720.00
2022-08-10T06:23:08.111Z,725.63
2022-08-10T06:24:08.138Z,742.50
2022-08-10T06:26:09.037Z,759.38
2022-08-10T06:26:13.436Z,776.25
2022-08-10T06:27:08.232Z,776.25
2022-08-10T06:28:08.262Z,787.50
2022-08-10T06:29:08.298Z,787.50
2022-08-10T06:30:20.565Z,810.00
2022-08-10T06:31:08.385Z,804.38
2022-08-10T06:32:08.395Z,821.25
2022-08-10T06:33:08.427Z,826.88
2022-08-10T06:34:08.461Z,838.13
2022-08-10T06:35:08.492Z,855.00
2022-08-10T06:36:08.522Z,871.88
2022-08-10T06:37:08.562Z,877.50
2022-08-10T06:38:08.623Z,911.25
2022-08-10T06:39:30.301Z,922.50
2022-08-10T06:40:08.693Z,911.25
2022-08-10T06:41:08.705Z,1400.63
2022-08-10T06:42:16.090Z,1603.13
2022-08-10T06:43:08.763Z,1530.00
2022-08-10T06:44:08.837Z,1535.63
2022-08-10T06:45:08.840Z,1462.50
2022-08-10T06:46:08.883Z,1541.25
2022-08-10T06:47:08.897Z,1535.63
2022-08-10T06:48:08.966Z,1490.63
2022-08-10T06:49:08.964Z,1378.13
2022-08-10T06:50:09.378Z,1518.75
2022-08-10T06:51:09.037Z,1681.88
2022-08-10T06:52:09.101Z,1468.13
2022-08-10T06:53:09.105Z,1569.38
2022-08-10T06:54:09.138Z,1670.63
2022-08-10T06:55:09.169Z,1670.63
2022-08-10T06:56:09.205Z,1805.63
2022-08-10T06:57:17.867Z,1760.63
2022-08-10T06:58:09.275Z,1946.25
2022-08-10T06:59:21.101Z,1968.75
2022-08-10T07:00:09.345Z,2025.00
2022-08-10T07:01:09.450Z,1996.88
2022-08-10T07:02:09.425Z,2002.50
2022-08-10T07:03:09.448Z,1935.00
2022-08-10T07:04:09.482Z,2092.50
2022-08-10T07:05:09.520Z,2120.63
2022-08-10T07:06:09.585Z,2092.50
2022-08-10T07:07:09.590Z,1968.75
2022-08-10T07:08:09.642Z,2013.75
2022-08-10T07:09:09.660Z,1929.38
2022-08-10T07:10:09.693Z,1996.88
2022-08-10T07:11:11.997Z,1839.38
2022-08-10T07:12:09.804Z,1378.13
2022-08-10T07:13:09.844Z,585.00
2022-08-10T07:14:15.500Z,281.25
2022-08-10T07:15:09.868Z,247.50
2022-08-10T07:16:09.906Z,230.63
2022-08-10T07:17:15.877Z,230.63
2022-08-10T07:18:09.975Z,230.63
2022-08-10T07:19:10.010Z,230.63
2022-08-10T07:20:10.044Z,230.63
2022-08-10T07:21:10.081Z,225.00
2022-08-10T07:22:10.110Z,219.38
2022-08-10T07:23:57.559Z,219.38
2022-08-10T07:24:10.179Z,213.75
2022-08-10T07:25:10.243Z,213.75
2022-08-10T07:26:10.246Z,213.75
2022-08-10T07:27:10.277Z,208.13
2022-08-10T07:28:10.315Z,208.13
2022-08-10T07:29:26.447Z,202.50
2022-08-10T07:30:10.387Z,196.88
2022-08-10T07:31:34.917Z,196.88
2022-08-10T07:32:10.437Z,196.88
2022-08-10T07:33:10.470Z,196.88
2022-08-10T07:34:10.508Z,196.88
2022-08-10T07:35:10.538Z,196.88
2022-08-10T07:36:10.574Z,196.88
2022-08-10T07:37:10.604Z,202.50
2022-08-10T07:38:10.689Z,202.50
2022-08-10T07:39:10.732Z,208.13
2022-08-10T07:40:10.762Z,202.50
2022-08-10T07:41:10.729Z,202.50
2022-08-10T07:42:10.764Z,202.50
2022-08-10T07:43:10.814Z,208.13
2022-08-10T07:44:10.830Z,208.13
2022-08-10T07:45:10.859Z,208.13
2022-08-10T07:46:10.904Z,208.13
2022-08-10T07:47:10.920Z,208.13
2022-08-10T07:48:10.949Z,208.13
2022-08-10T07:49:18.949Z,208.13
2022-08-10T07:50:11.016Z,208.13
2022-08-10T07:51:11.046Z,213.75
2022-08-10T07:52:11.081Z,202.50
2022-08-10T07:53:11.112Z,202.50
2022-08-10T07:54:11.140Z,196.88
2022-08-10T07:55:11.172Z,202.50
2022-08-10T07:56:26.284Z,202.50
2022-08-10T07:57:11.238Z,202.50
2022-08-10T07:58:11.269Z,202.50
2022-08-10T07:59:11.298Z,208.13
2022-08-10T08:00:11.329Z,213.75
2022-08-10T08:01:11.406Z,219.38
2022-08-10T08:02:11.474Z,213.75
2022-08-10T08:03:11.432Z,208.13
2022-08-10T08:04:18.639Z,202.50
2022-08-10T08:06:15.951Z,208.13
2022-08-10T08:07:18.443Z,208.13
2022-08-10T08:09:19.541Z,196.88
2022-08-10T08:10:19.591Z,191.25
2022-08-10T08:12:24.068Z,185.63
2022-08-10T08:13:23.672Z,180.00
2022-08-10T08:16:18.180Z,180.00
2022-08-10T08:16:27.693Z,180.00
2022-08-10T08:18:32.191Z,174.38
2022-08-10T08:19:37.080Z,174.38
2022-08-10T08:24:07.521Z,174.38
2022-08-10T08:24:30.758Z,174.38
2022-08-10T08:24:40.703Z,174.38
2022-08-10T08:25:39.952Z,174.38
2022-08-10T08:27:32.837Z,168.75
2022-08-10T08:28:32.862Z,168.75
2022-08-10T08:30:37.358Z,168.75
2022-08-10T08:31:36.914Z,168.75
2022-08-10T08:33:42.010Z,168.75
2022-08-10T08:34:40.976Z,168.75
2022-08-10T08:36:45.473Z,168.75
2022-08-10T08:38:28.895Z,168.75
2022-08-10T08:39:49.596Z,163.13
2022-08-10T08:40:49.090Z,163.13
2022-08-10T08:42:53.132Z,163.13
2022-08-10T08:43:53.153Z,163.13
2022-08-10T08:46:01.191Z,163.13
2022-08-10T08:46:59.518Z,163.13
2022-08-10T08:49:01.249Z,163.13
2022-08-10T08:50:08.524Z,163.13
2022-08-10T08:52:07.785Z,163.13
2022-08-10T08:53:16.723Z,163.13
2022-08-10T08:56:04.389Z,163.13
2022-08-10T08:56:09.397Z,163.13
2022-08-10T08:58:13.910Z,163.13
2022-08-10T08:59:13.453Z,163.13
2022-08-10T09:01:17.517Z,163.13
2022-08-10T09:02:17.618Z,163.13
2022-08-10T09:04:19.976Z,163.13
2022-08-10T09:05:10.712Z,163.13
2022-08-10T09:07:03.672Z,163.13
2022-08-10T09:08:03.713Z,163.13
2022-08-10T09:10:08.192Z,163.13
2022-08-10T09:11:07.758Z,163.13
2022-08-10T09:13:11.792Z,163.13
2022-08-10T09:14:11.809Z,163.13
2022-08-10T09:16:16.321Z,163.13
2022-08-10T09:17:15.877Z,163.13
2022-08-10T09:19:35.335Z,163.13
2022-08-10T09:20:19.931Z,163.13
2022-08-10T09:22:24.066Z,163.13
2022-08-10T09:23:23.990Z,163.13
2022-08-10T09:25:28.489Z,163.13
2022-08-10T09:26:28.057Z,163.13
2022-08-10T09:28:32.083Z,157.50
2022-08-10T09:29:32.104Z,163.13
2022-08-10T09:31:39.340Z,157.50
2022-08-10T09:36:14.701Z,157.50
2022-08-10T09:36:22.614Z,157.50
2022-08-10T09:36:25.146Z,157.50
2022-08-10T09:37:40.026Z,157.50
2022-08-10T09:38:33.190Z,157.50
2022-08-10T09:40:57.563Z,157.50
2022-08-10T09:41:37.311Z,157.50
2022-08-10T09:43:41.298Z,157.50
2022-08-10T09:44:57.992Z,163.13
2022-08-10T09:46:45.819Z,163.13
2022-08-10T09:48:00.922Z,163.13
2022-08-10T09:49:54.816Z,163.13
2022-08-10T09:51:28.470Z,163.13
2022-08-10T09:52:58.669Z,163.13
2022-08-10T09:53:53.516Z,163.13
2022-08-10T09:56:19.037Z,163.13
2022-08-10T09:57:17.840Z,163.13
2022-08-10T10:00:00.836Z,168.75
2022-08-10T10:00:02.781Z,168.75
2022-08-10T10:02:05.686Z,168.75
2022-08-10T10:03:05.752Z,168.75
2022-08-10T10:05:10.214Z,168.75
2022-08-10T10:06:09.770Z,168.75
2022-08-10T10:08:13.804Z,163.13
2022-08-10T10:09:13.827Z,163.13
2022-08-10T10:11:18.327Z,163.13
2022-08-10T10:12:17.891Z,163.13
2022-08-10T10:14:22.394Z,163.13
2022-08-10T10:15:25.359Z,163.13
2022-08-10T10:17:14.909Z,163.13
2022-08-10T10:18:14.930Z,157.50
2022-08-10T10:20:19.420Z,157.50
2022-08-10T10:21:51.293Z,151.88
2022-08-10T10:23:23.018Z,151.88
2022-08-10T10:24:23.131Z,151.88
2022-08-10T10:26:27.540Z,151.88
2022-08-10T10:27:27.157Z,151.88
2022-08-10T10:29:56.644Z,146.25
2022-08-10T10:30:31.228Z,146.25
2022-08-10T10:32:37.406Z,146.25
2022-08-10T10:33:35.296Z,146.25
2022-08-10T10:35:39.727Z,146.25
2022-08-10T10:36:39.288Z,146.25
2022-08-10T10:38:43.329Z,146.25
2022-08-10T10:39:43.433Z,146.25
2022-08-10T10:42:03.920Z,146.25
2022-08-10T10:42:47.412Z,146.25
2022-08-10T10:44:51.448Z,140.63
2022-08-10T10:45:51.476Z,140.63
2022-08-10T10:47:44.957Z,140.63
2022-08-10T10:48:44.451Z,140.63
2022-08-10T10:50:48.486Z,140.63
2022-08-10T10:51:48.504Z,140.63
2022-08-10T10:53:53.001Z,140.63
2022-08-10T10:54:52.562Z,140.63
2022-08-10T10:56:45.520Z,140.63
2022-08-10T10:57:58.957Z,140.63
2022-08-10T10:59:55.958Z,140.63
2022-08-10T11:00:49.602Z,140.63
2022-08-10T11:02:53.643Z,140.63
2022-08-10T11:03:53.663Z,140.63
2022-08-10T11:05:58.163Z,140.63
2022-08-10T11:06:57.737Z,140.63
2022-08-10T11:09:02.270Z,140.63
2022-08-10T11:10:07.001Z,140.63
2022-08-10T11:12:05.835Z,146.25
2022-08-10T11:14:23.598Z,140.63
2022-08-10T11:15:10.368Z,140.63
2022-08-10T11:16:09.983Z,140.63
2022-08-10T11:18:14.101Z,146.25
2022-08-10T11:19:13.984Z,140.63
2022-08-10T11:21:18.485Z,140.63
2022-08-10T11:22:18.041Z,140.63
2022-08-10T11:24:48.016Z,140.63
2022-08-10T11:25:22.104Z,140.63
2022-08-10T11:27:21.698Z,140.63
2022-08-10T11:28:15.079Z,135.00
2022-08-10T11:30:19.577Z,135.00
2022-08-10T11:31:19.162Z,135.00
2022-08-10T11:33:33.012Z,135.00
2022-08-10T11:34:48.150Z,140.63
2022-08-10T11:36:27.718Z,140.63
2022-08-10T11:37:27.323Z,140.63
2022-08-10T11:39:31.454Z,135.00
2022-08-10T11:40:31.342Z,135.00
2022-08-10T11:42:36.635Z,135.00
2022-08-10T11:43:35.418Z,135.00
2022-08-10T11:45:51.391Z,135.00
2022-08-10T11:46:39.468Z,135.00
2022-08-10T11:48:53.125Z,140.63
2022-08-10T11:49:43.540Z,140.63
2022-08-10T11:51:47.578Z,140.63
2022-08-10T11:52:47.600Z,140.63
2022-08-10T11:54:52.103Z,135.00
2022-08-10T11:55:51.657Z,135.00
2022-08-10T11:57:53.453Z,135.00
2022-08-10T11:58:44.634Z,135.00
2022-08-10T12:00:48.666Z,135.00
2022-08-10T12:01:48.693Z,135.00
2022-08-10T12:03:53.216Z,140.63
2022-08-10T12:04:52.758Z,140.63
2022-08-10T12:06:55.708Z,140.63
2022-08-10T12:09:23.933Z,140.63
2022-08-10T12:10:09.247Z,140.63
2022-08-10T12:10:49.801Z,140.63
2022-08-10T12:12:53.846Z,140.63
2022-08-10T12:14:17.902Z,140.63
2022-08-10T12:16:02.092Z,140.63
2022-08-10T12:16:57.931Z,140.63
2022-08-10T12:19:02.440Z,140.63
2022-08-10T12:20:03.754Z,140.63
2022-08-10T12:22:06.431Z,140.63
2022-08-10T12:23:06.048Z,140.63
2022-08-10T12:25:10.546Z,140.63
2022-08-10T12:26:10.109Z,140.63
2022-08-10T12:28:14.630Z,140.63
2022-08-10T12:29:14.182Z,140.63
2022-08-10T12:31:18.216Z,140.63
2022-08-10T12:32:18.239Z,140.63
2022-08-10T12:34:22.737Z,140.63
2022-08-10T12:35:26.152Z,140.63
2022-08-10T12:37:15.252Z,140.63
2022-08-10T12:38:15.279Z,140.63
2022-08-10T12:40:36.779Z,140.63
2022-08-10T12:41:19.336Z,140.63
2022-08-10T12:44:05.458Z,135.00
2022-08-10T12:44:23.435Z,135.00
2022-08-10T12:46:27.898Z,135.00
2022-08-10T12:47:27.466Z,140.63
2022-08-10T12:49:31.494Z,140.63
2022-08-10T12:50:33.817Z,140.63
2022-08-10T12:52:36.200Z,140.63
2022-08-10T12:53:35.585Z,140.63
2022-08-10T12:55:41.588Z,140.63
2022-08-10T12:56:40.194Z,140.63
2022-08-10T12:58:57.959Z,140.63
2022-08-10T12:59:43.883Z,140.63
2022-08-10T13:02:07.638Z,140.63
2022-08-10T13:02:49.165Z,140.63
2022-08-10T13:04:51.817Z,140.63
2022-08-10T13:06:00.222Z,140.63
2022-08-10T13:08:25.218Z,140.63
2022-08-10T13:08:44.821Z,140.63
2022-08-10T13:10:48.865Z,140.63
2022-08-10T13:12:36.740Z,140.63
2022-08-10T13:13:53.411Z,140.63
2022-08-10T13:14:52.946Z,140.63
2022-08-10T13:16:45.913Z,140.63
2022-08-10T13:17:45.930Z,140.63
2022-08-10T13:19:56.070Z,140.63
2022-08-10T13:20:50.001Z,140.63
2022-08-10T13:22:54.503Z,140.63
2022-08-10T13:23:59.628Z,140.63
2022-08-10T13:25:58.108Z,140.63
2022-08-10T13:27:26.495Z,140.63
2022-08-10T13:29:02.631Z,140.63
2022-08-10T13:30:02.206Z,140.63
2022-08-10T13:32:09.515Z,140.63
2022-08-10T13:33:06.254Z,140.63
2022-08-10T13:35:10.761Z,140.63
2022-08-10T13:36:10.316Z,135.00
2022-08-10T13:38:14.351Z,135.00
2022-08-10T13:39:14.416Z,135.00
2022-08-10T13:41:18.880Z,135.00
2022-08-10T13:42:18.461Z,135.00
2022-08-10T13:44:22.960Z,135.00
2022-08-10T13:45:22.527Z,135.00
2022-08-10T13:47:15.480Z,135.00
2022-08-10T13:48:15.502Z,135.00
2022-08-10T13:50:20.004Z,135.00
2022-08-10T13:51:19.564Z,135.00
2022-08-10T13:53:23.606Z,135.00
2022-08-10T13:54:23.632Z,135.00
2022-08-10T13:56:29.626Z,135.00
2022-08-10T13:57:27.687Z,135.00
2022-08-10T14:00:33.763Z,135.00
2022-08-10T14:00:34.689Z,135.00
2022-08-10T14:02:36.026Z,135.00
2022-08-10T14:03:35.818Z,135.00
2022-08-10T14:05:40.321Z,135.00
2022-08-10T14:06:39.875Z,135.00
2022-08-10T14:08:43.908Z,135.00
2022-08-10T14:09:43.932Z,135.00
2022-08-10T14:11:48.430Z,140.63
2022-08-10T14:12:47.993Z,140.63
2022-08-10T14:14:52.612Z,140.63
2022-08-10T14:15:52.058Z,140.63
2022-08-10T14:17:45.567Z,140.63
2022-08-10T14:18:45.220Z,135.00
2022-08-10T14:20:49.544Z,135.00
2022-08-10T14:21:49.103Z,135.00
2022-08-10T14:23:53.886Z,135.00
2022-08-10T14:24:53.160Z,135.00
2022-08-10T14:26:46.655Z,135.00
2022-08-10T14:28:02.237Z,135.00
2022-08-10T14:29:50.189Z,135.00
2022-08-10T14:30:50.213Z,135.00
2022-08-10T14:32:55.213Z,135.00
2022-08-10T14:33:54.764Z,135.00
2022-08-10T14:36:15.491Z,135.00
2022-08-10T14:36:19.050Z,135.00
2022-08-10T14:36:54.861Z,135.00
2022-08-10T14:37:54.904Z,135.00
2022-08-10T14:38:54.934Z,135.00
2022-08-10T14:39:55.303Z,135.00
2022-08-10T14:40:55.002Z,135.00
2022-08-10T14:42:05.696Z,135.00
2022-08-10T14:42:55.076Z,135.00
2022-08-10T14:43:55.108Z,135.00
2022-08-10T14:44:55.140Z,135.00
2022-08-10T14:45:55.174Z,135.00
2022-08-10T14:46:55.664Z,135.00
2022-08-10T14:48:00.923Z,135.00
2022-08-10T14:48:55.275Z,129.38
2022-08-10T14:49:56.932Z,129.38
2022-08-10T14:50:56.215Z,135.00
2022-08-10T14:51:56.768Z,135.00
2022-08-10T14:52:56.396Z,135.00
2022-08-10T14:53:55.445Z,135.00
2022-08-10T14:54:55.475Z,135.00
2022-08-10T14:55:58.622Z,135.00
2022-08-10T14:56:55.545Z,135.00
2022-08-10T14:58:19.195Z,135.00
2022-08-10T14:59:05.257Z,135.00
2022-08-10T15:00:25.355Z,135.00
2022-08-10T15:00:55.763Z,135.00
2022-08-10T15:02:01.064Z,135.00
2022-08-10T15:02:57.921Z,135.00
2022-08-10T15:04:02.186Z,135.00
2022-08-10T15:04:55.811Z,135.00
2022-08-10T15:05:59.164Z,135.00
2022-08-10T15:06:55.881Z,135.00
2022-08-10T15:07:59.391Z,135.00
2022-08-10T15:08:55.947Z,135.00
2022-08-10T15:10:01.612Z,135.00
2022-08-10T15:10:56.020Z,135.00
2022-08-10T15:12:15.670Z,135.00
2022-08-10T15:12:58.500Z,135.00
2022-08-10T15:14:12.312Z,135.00
2022-08-10T15:14:56.158Z,135.00
2022-08-10T15:16:12.080Z,135.00
2022-08-10T15:16:56.221Z,135.00
2022-08-10T15:17:57.537Z,135.00
2022-08-10T15:18:57.457Z,135.00
2022-08-10T15:20:02.075Z,135.00
2022-08-10T15:20:56.357Z,135.00
2022-08-10T15:22:01.189Z,135.00
2022-08-10T15:22:56.430Z,135.00
2022-08-10T15:24:05.154Z,135.00
2022-08-10T15:24:56.490Z,140.63
2022-08-10T15:25:58.085Z,140.63
2022-08-10T15:26:57.822Z,140.63
2022-08-10T15:27:56.752Z,140.63
2022-08-10T15:29:24.402Z,146.25
2022-08-10T15:29:58.247Z,146.25
2022-08-10T15:30:56.702Z,146.25
2022-08-10T15:31:56.742Z,146.25
2022-08-10T15:32:56.760Z,151.88
2022-08-10T15:34:04.155Z,151.88
2022-08-10T15:34:56.862Z,157.50
2022-08-10T15:35:56.865Z,157.50
2022-08-10T15:37:35.979Z,157.50
2022-08-10T15:37:56.945Z,157.50
2022-08-10T15:38:56.970Z,157.50
2022-08-10T15:40:21.226Z,157.50
2022-08-10T15:40:57.126Z,157.50
2022-08-10T15:41:58.876Z,157.50
2022-08-10T15:42:58.355Z,157.50
2022-08-10T15:43:57.141Z,151.88
2022-08-10T15:44:57.168Z,151.88
2022-08-10T15:45:57.205Z,151.88
2022-08-10T15:46:57.238Z,151.88
2022-08-10T15:48:03.526Z,151.88
2022-08-10T15:48:57.316Z,146.25
2022-08-10T15:49:57.341Z,140.63
2022-08-10T15:50:57.373Z,140.63